Latest Coastal Weather Observations for Geraldton Airport

IDW60701

Issued at 7:02 am WST Monday 30 May 2016 (issued every 10 minutes, with the page automatically refreshed every 10 minutes)

About coastal observations | Map of coastal stations | Coastal observations for WA | Marine services | Other Formats
Station Details ID: 008315 Name: GERALDTON AIRPORT Lat: -28.80 Lon: 114.70 Height: 29.7 m
Data from the previous 72 hours. | See also: Recent months at Geraldton Airport
Date/Time
WST
Temp

°C
Wind Pressure Rain
since 9am
mm
Weather Cloud Vis
km
Sea
Height
m
Swell
Dir
 
Speed
knots
Gust
knots
hPa Trend Height
m
Period
s
Dir
30/07:00am 12.6 NNE 8 11 1017.7 - 0.0 - Cloudy 10 - - - -
30/06:30am 12.0 NE 9 11 1017.4 - 0.0 - Cloudy 10 - - - -
30/06:00am 11.3 NE 7 9 1017.3 - 0.0 - Partly cloudy 10 - - - -
30/05:30am 11.1 NNE 8 9 1017.0 - 0.0 - Partly cloudy 10 - - - -
30/05:00am 11.7 NE 9 10 1016.6 - 0.0 - Cloudy 10 - - - -
30/04:30am 12.4 NNE 10 11 1016.8 - 0.0 - Partly cloudy 10 - - - -
30/04:00am 12.0 NE 7 8 1016.5 - 0.0 - Partly cloudy 10 - - - -
30/03:30am 12.5 NE 5 6 1016.4 - 0.0 - - 10 - - - -
30/03:00am 12.7 NE 5 6 1016.5 - 0.0 - - 10 - - - -
30/02:30am 12.7 NNE 4 6 1016.6 - 0.0 - - 10 - - - -
30/02:00am 12.8 ENE 6 8 1016.5 - 0.0 - - 10 - - - -
30/01:30am 12.3 NE 6 8 1016.8 - 0.0 - - 10 - - - -
30/01:00am 13.2 ENE 3 4 1017.0 - 0.0 - - 10 - - - -
30/12:30am 13.9 CALM 0 0 1017.1 - 0.0 - Partly cloudy 10 - - - -
30/12:00am 14.1 ESE 3 5 1017.1 - 0.0 - Mostly cloudy 10 - - - -
 
Date/Time
WST
Temp

°C
Wind Pressure Rain
since 9am
mm
Weather Cloud Vis
km
Sea
Height
m
Swell
Dir
 
Speed
knots
Gust
knots
hPa Trend Height
m
Period
s
Dir
29/11:30pm 14.2 SSE 5 6 1017.5 - 0.0 - Cloudy 10 - - - -
29/11:00pm 14.3 SSE 6 7 1017.6 - 0.0 - Cloudy 10 - - - -
29/10:30pm 14.5 SE 7 8 1017.6 - 0.0 - Partly cloudy 10 - - - -
29/10:00pm 14.7 SSE 6 7 1018.0 - 0.0 - Cloudy 10 - - - -
29/09:30pm 15.4 SSE 7 8 1018.0 - 0.0 - Partly cloudy 10 - - - -
29/09:00pm 16.2 SE 8 10 1018.1 - 0.0 - Cloudy 10 - - - -
29/08:30pm 16.5 SE 8 9 1018.1 - 0.0 - Cloudy 10 - - - -
29/08:00pm 16.3 SE 5 6 1018.0 - 0.0 - Cloudy 10 - - - -
29/07:30pm 16.4 SSE 6 8 1017.9 - 0.0 - Cloudy 10 - - - -
29/07:00pm 16.6 SE 7 8 1017.8 - 0.0 - Cloudy 10 - - - -
29/06:30pm 16.8 SSE 6 7 1017.4 - 0.0 - Cloudy 10 - - - -
29/06:00pm 17.1 SSE 7 9 1016.9 - 0.0 - Cloudy 10 - - - -
29/05:30pm 17.3 S 6 7 1017.0 - 0.0 - Cloudy 10 - - - -
29/05:00pm 17.7 S 7 8 1017.0 - 0.0 - Cloudy 10 - - - -
29/04:30pm 18.3 S 7 9 1016.6 - 0.0 - Partly cloudy 10 - - - -
29/04:00pm 19.3 SSE 6 9 1016.3 - 0.0 - Partly cloudy 10 - - - -
29/03:30pm 19.7 SE 7 9 1016.1 - 0.0 - - 10 - - - -
29/03:00pm 19.2 SE 6 7 1015.9 - 0.0 - - 10 - - - -
29/02:30pm 19.2 SSE 7 10 1015.9 - 0.0 - Partly cloudy 10 - - - -
29/02:00pm 19.2 SSE 6 9 1016.1 - 0.0 - Cloudy 10 - - - -
29/01:30pm 18.6 S 6 8 1016.5 - 0.0 - Cloudy 10 - - - -
29/01:00pm 18.3 S 8 10 1017.1 - 0.0 - Partly cloudy 10 - - - -
29/12:30pm 18.9 E 2 5 1017.3 - 0.0 - Partly cloudy 10 - - - -
29/12:00pm 18.8 N 3 6 1017.6 - 0.0 - Cloudy 10 - - - -
29/11:30am 18.7 N 3 5 1018.1 - 0.0 - Cloudy 10 - - - -
29/11:00am 18.9 NE 5 8 1018.2 - 0.0 - Partly cloudy 10 - - - -
29/10:30am 18.0 NNE 7 9 1018.7 - 0.0 - Partly cloudy 10 - - - -
29/10:00am 17.0 NNE 8 9 1018.9 - 0.0 - Partly cloudy 10 - - - -
29/09:30am 16.3 NNE 7 9 1018.9 - 0.0 - Partly cloudy 10 - - - -
29/09:00am 15.1 NNE 7 9 1018.7 - 0.0 - - 10 - - - -
29/08:30am 13.5 NNE 8 9 1018.6 - 0.0 - Partly cloudy 10 - - - -
29/08:00am 12.9 NNE 8 10 1018.6 - 0.0 - Partly cloudy 10 - - - -
29/07:30am 12.9 NNE 7 8 1018.2 - 0.0 - Partly cloudy 10 - - - -
29/07:00am 12.3 NE 6 7 1018.1 - 0.0 - Partly cloudy 10 - - - -
29/06:30am 12.4 NNE 6 7 1018.0 - 0.0 - Partly cloudy 10 - - - -
29/06:00am 12.4 NNE 7 8 1017.4 - 0.0 - Cloudy 10 - - - -
29/05:30am 12.9 NNE 5 7 1017.4 - 0.0 - Cloudy 10 - - - -
29/05:00am 12.6 NNE 5 6 1017.0 - 0.0 - Cloudy 10 - - - -
29/04:30am 12.8 NNE 5 6 1017.0 - 0.0 - Cloudy 10 - - - -
29/04:00am 13.4 E 6 8 1017.2 - 0.0 - Partly cloudy 10 - - - -
29/03:30am 12.7 NE 3 5 1017.2 - 0.0 - Partly cloudy 10 - - - -
29/03:00am 11.6 E 6 7 1016.8 - 0.0 - - 10 - - - -
29/02:30am 12.2 SE 7 9 1017.0 - 0.0 - - 10 - - - -
29/02:00am 13.0 S 2 6 1017.2 - 0.0 - Cloudy 10 - - - -
29/01:30am 12.5 SSE 3 5 1017.2 - 0.0 - Partly cloudy 10 - - - -
29/01:00am 13.0 E 3 5 1016.9 - 0.0 - Partly cloudy 10 - - - -
29/12:30am 13.9 NNE 6 8 1017.1 - 0.0 - Partly cloudy 10 - - - -
29/12:00am 13.9 ENE 3 6 1017.2 - 0.0 - Mostly cloudy 10 - - - -
 
Date/Time
WST
Temp

°C
Wind Pressure Rain
since 9am
mm
Weather Cloud Vis
km
Sea
Height
m
Swell
Dir
 
Speed
knots
Gust
knots
hPa Trend Height
m
Period
s
Dir
28/11:30pm 14.5 SE 5 5 1017.5 - 0.0 - Cloudy 10 - - - -
28/11:00pm 14.4 SE 4 5 1017.4 - 0.0 - Cloudy 10 - - - -
28/10:30pm 14.3 SE 7 8 1017.0 - 0.0 - Partly cloudy 10 - - - -
28/10:00pm 13.5 SSE 4 5 1017.1 - 0.0 - Partly cloudy 10 - - - -
28/09:30pm 12.9 E 5 7 1017.3 - 0.0 - - 10 - - - -
28/09:00pm 14.2 WSW 3 4 1017.4 - 0.0 - - 10 - - - -
28/08:30pm 14.7 WNW 3 4 1017.5 - 0.0 - Partly cloudy 10 - - - -
28/08:00pm 15.6 W 4 5 1017.4 - 0.0 - Partly cloudy 10 - - - -
28/07:30pm 15.4 WSW 4 4 1017.0 - 0.0 - Partly cloudy 10 - - - -
28/07:00pm 16.1 SW 4 5 1016.6 - 0.0 - - 10 - - - -
28/06:30pm 16.1 SW 5 5 1016.4 - 0.0 - - 10 - - - -
28/06:00pm 17.2 SW 5 7 1016.1 - 0.0 - Mostly cloudy 10 - - - -
28/05:30pm 17.9 SW 8 11 1016.1 - 0.0 - Partly cloudy 10 - - - -
28/05:00pm 18.9 SSW 9 11 1016.1 - 0.0 - Cloudy 10 - - - -
28/04:30pm 19.5 SW 11 14 1016.1 - 0.0 - Cloudy 10 - - - -
28/04:00pm 19.8 SW 12 16 1015.9 - 0.0 - Cloudy 10 - - - -
28/03:30pm 20.2 SW 13 16 1015.5 - 0.0 - Cloudy 10 - - - -
28/03:00pm 20.5 SW 11 15 1015.4 - 0.0 - Mostly cloudy 10 - - - -
28/02:30pm 20.1 WSW 7 10 1015.7 - 0.0 - Partly cloudy 10 - - - -
28/02:00pm 19.3 W 10 13 1015.8 - 0.0 - Partly cloudy 10 - - - -
28/01:30pm 19.6 WSW 8 15 1015.9 - 0.0 - Partly cloudy 10 - - - -
28/01:00pm 18.9 W 6 9 1016.1 - 0.0 - Partly cloudy 10 - - - -
28/12:30pm 19.6 SW 9 11 1016.3 - 0.0 - Partly cloudy 10 - - - -
28/12:00pm 19.6 SW 12 16 1016.6 - 0.0 - Cloudy 10 - - - -
28/11:30am 19.3 SW 11 14 1017.0 - 0.0 - Partly cloudy 10 - - - -
28/11:00am 18.6 WSW 15 20 1017.3 - 0.0 - Partly cloudy 10 - - - -
28/10:30am 19.2 SW 14 17 1017.3 - 0.0 - Partly cloudy 10 - - - -
28/10:00am 19.3 SW 13 22 1017.3 - 0.0 - Partly cloudy 10 - - - -
28/09:30am 20.4 W 13 18 1017.3 - 0.0 - Cloudy 10 - - - -
28/09:00am 19.9 W 12 15 1017.0 - 0.2 - Cloudy 10 - - - -
28/08:30am 17.8 WNW 4 8 1017.1 - 0.2 - Partly cloudy 10 - - - -
28/08:00am 15.0 NW 4 8 1016.9 - 0.2 - Partly cloudy 10 - - - -
28/07:30am 13.2 N 6 7 1016.7 - 0.2 - Partly cloudy 10 - - - -
28/07:00am 12.6 N 7 9 1016.3 - 0.2 - Partly cloudy 10 - - - -
28/06:30am 12.3 N 7 8 1016.3 - 0.2 - Partly cloudy 10 - - - -
28/06:00am 11.7 NNE 9 9 1016.2 - 0.2 - Mostly clear 10 - - - -
28/05:30am 11.6 N 9 10 1016.2 - 0.2 - Partly cloudy 10 - - - -
28/05:00am 11.6 NNE 9 10 1016.2 - 0.2 - Partly cloudy 10 - - - -
28/04:30am 11.8 NNE 9 10 1016.3 - 0.2 - Partly cloudy 10 - - - -
28/04:00am 11.5 NNE 9 10 1016.4 - 0.2 - - 10 - - - -
28/03:30am 11.4 NNE 9 11 1016.5 - 0.2 - - 10 - - - -
28/03:00am 11.6 N 9 10 1016.6 - 0.2 - - 10 - - - -
28/02:30am 11.6 NNE 8 9 1016.8 - 0.2 - - 10 - - - -
28/02:00am 11.8 NNE 9 11 1016.7 - 0.2 - - 10 - - - -
28/01:30am 12.0 N 7 8 1017.1 - 0.2 - - 10 - - - -
28/01:00am 12.1 N 7 9 1017.2 - 0.2 - - 10 - - - -
28/12:30am 12.4 NNE 7 9 1017.5 - 0.2 - - 10 - - - -
28/12:00am 12.8 N 8 9 1017.5 - 0.2 - - 10 - - - -
 
Date/Time
WST
Temp

°C
Wind Pressure Rain
since 9am
mm
Weather Cloud Vis
km
Sea
Height
m
Swell
Dir
 
Speed
knots
Gust
knots
hPa Trend Height
m
Period
s
Dir
27/11:30pm 12.6 NNE 6 7 1017.8 - 0.2 - - 10 - - - -
27/11:00pm 12.2 N 5 5 1018.1 - 0.2 - - 10 - - - -
27/10:30pm 12.6 N 3 4 1018.2 - 0.2 - - 10 - - - -
27/10:00pm 12.9 N 3 4 1018.3 - 0.2 - - 10 - - - -
27/09:30pm 12.9 N 5 5 1018.4 - 0.2 - - 10 - - - -
27/09:00pm 13.5 NNE 5 7 1018.4 - 0.2 - - 10 - - - -
27/08:30pm 13.7 ENE 2 5 1018.3 - 0.2 - Partly cloudy 10 - - - -
27/08:00pm 14.8 CALM 0 0 1018.4 - 0.2 - Partly cloudy 10 - - - -
27/07:30pm 14.8 CALM 0 0 1018.3 - 0.2 - - 10 - - - -
27/07:00pm 15.2 CALM 0 2 1018.1 - 0.2 - - 10 - - - -
27/06:30pm 16.6 SE 4 4 1018.0 - 0.2 - - 10 - - - -
27/06:00pm 16.6 S 3 4 1017.7 - 0.2 - - 10 - - - -
27/05:30pm 17.7 SSW 6 7 1017.5 - 0.2 - - 10 - - - -
27/05:00pm 19.1 SSW 8 12 1017.4 - 0.2 - - 10 - - - -
27/04:30pm 20.4 SW 9 10 1017.3 - 0.2 - - 10 - - - -
27/04:00pm 21.1 SW 6 9 1017.3 - 0.2 - Partly cloudy 10 - - - -
27/03:30pm 21.4 W 7 10 1017.4 - 0.2 - Partly cloudy 10 - - - -
27/03:00pm 22.0 N 2 7 1017.4 - 0.2 - Mostly clear 10 - - - -
27/02:30pm 21.9 E 3 6 1017.7 - 0.2 - Mostly clear 10 - - - -
27/02:00pm 21.7 E 4 7 1018.0 - 0.2 - Mostly clear 10 - - - -
27/01:30pm 21.8 NE 6 10 1018.4 - 0.2 - Mostly clear 10 - - - -
27/01:00pm 21.4 NE 7 10 1018.8 - 0.2 - Mostly clear 10 - - - -
27/12:30pm 21.1 NE 8 12 1019.4 - 0.2 - Mostly clear 10 - - - -
27/12:00pm 21.0 NE 9 13 1020.2 - 0.2 - Mostly clear 10 - - - -
27/11:30am 20.3 NE 9 13 1020.8 - 0.0 - - 10 - - - -
27/11:00am 19.7 E 10 13 1021.3 - 0.0 - - 10 - - - -
27/10:30am 18.9 ENE 11 14 1021.6 - 0.0 - - 10 - - - -
27/10:00am 18.1 E 11 12 1021.9 - 0.0 - - 10 - - - -
27/09:30am 17.3 E 9 10 1022.0 - 0.0 - - 10 - - - -
27/09:00am 15.8 E 7 8 1021.9 - 0.0 - - 10 - - - -
27/08:30am 12.9 NE 7 9 1021.9 - 0.0 - - 10 - - - -
27/08:00am 12.0 NNE 8 9 1021.9 - 0.0 - - 10 - - - -
27/07:30am 11.0 NE 7 8 1021.4 - 0.0 - - 10 - - - -

Other Formats:

Comma delimited format used in spreadsheet applications
http://www.bom.gov.au/fwo/IDW60701/IDW60701.94403.axf

JavaScript Object Notation format (JSON) in row-major order
http://www.bom.gov.au/fwo/IDW60701/IDW60701.94403.json